< < Back
Terminal Aerodrome Forecast


Current Version              Previous Versions:   1  2  3  4  5  6  7  8  9  

Terminal Aerodrome Forecast

889
FTUS42 KGSP 181740
TAFGSP
TAF
KGSP 181740Z 1818/1918 21003KT P6SM BKN090
     FM182300 25003KT P6SM SCT080
     FM190100 36003KT P6SM FEW250=



Latest METAR

545
SAUS70 KWBC 190400 RRI
MTRGSP
METAR KGSP 190353Z 00000KT 10SM CLR 07/M02 A3009 RMK AO2 SLP187
T00721017


USA.gov is the U.S. government's official web portal to all federal, state and local government web resources and services.